Springridge, Louisiana
Current Conditions -  °F | °C
As of 6:56 AM on Friday 24 Oct 2014 (Local Time) from KSHV Reporting Station
Clear Clear  
Wind Chill: 49°   Ceiling: Unl
Heat Index: 49°   Visibility: 10mi
Dew Point: 48°   Wind: 0mph
Humidity: 97%   Direction: NA
Pressure: 30.16"   Gusts: NA
Location:  32.3035°N, 93.9134°W
Report Text: KSHV 241156Z 00000KT 10SM CLR 09/09 A3016 RMK AO2 SLP210 MIFG SE-S-SW T00940089 10117 20094 51007
Loading
Personal Weather Stations






























Interactive Weather Map
Tropical Storm Tracking
New forecast layout! Learn more

10-Day Weather Forecast

Advertisements
Track Severe Weather on mobile